Aérodrome :
LOGIN :

S'inscrire | Disclaimer

   EN    FR    IT 

 










Légende :    VFR   VFR Marginal   IFR   IFR Intensif   IFR Très Intensif
Visi : 
Plafond : 
>= 8 km
>= 3000ft
5 à 8 km
1000 à 3000 ft
1500m à 5 km
500 à 1000 ft
800 à 1500m
200 à 500 ft
< 800m
< 200 ft
Symboles :   Orages  Brouillard  Fortes neiges  Fortes précipitations  Vent > 20 kt
SIGMETs :   Divers  Orages  Givrage  Turbulence  Onde Orograph.  Cendres Volcan.







- Altitude de l'aérodrome : 499 ft
- Code IATA : TLS
- Voir les cartes d'approche


LFBO - Toulouse / Blagnac

DERNIER METAR :
  • 131630Z AUTO 19007KT CAVOK 09/03 Q1016 BECMG 26010KT

METARs EXPIRÉS :
  • 131600Z AUTO 18005KT 9999 FEW013 OVC094 09/03 Q1016 BECMG 26010KT
  • 131530Z AUTO 17005KT CAVOK 09/02 Q1016 BECMG 26010KT
  • 131500Z AUTO 17005KT CAVOK 09/02 Q1016 BECMG 26010KT
  • 131430Z AUTO 17005KT 9999 FEW007 BKN092 BKN110 08/01 Q1017 BECMG 26010KT
  • 131400Z AUTO 17005KT 9999 FEW029 SCT100 BKN140 08/00 Q1017 BECMG 26010KT

TAF TAF LFBO
Valide du 13 à 12h jusqu'au 14 à 18h UTC


131100Z 1312/1418 16005KT CAVOK
TEMPO 1312/1313 -RA BKN025
BECMG 1315/1317 26010KT BKN035
PROB40
TEMPO 1317/1409 -RA
PROB40
TEMPO 1322/1402 26017G27KT
PROB40
TEMPO 1417/1418 -RA
ATIS : +33 5 62 74 66 36
Pas de NOTAMs connus pour ce terrain.
1 SIGMET publié pour la FIR Bordeaux (LFBB) :
 
Turbulence forte
LFBB SIGMET 1 VALID 131600/132000 LFPW
LFBB BORDEAUX FIR/UIR SEV TURB FCST WI N4445 W00145 - N4630 W00130 - N4630 W00015 - N4715 W00015 - N4715 E00200 - N4700 E00215 - N4545 E00130 - N4445 W00145 SFC/FL050 MOV E 40KT INTSF=



MET'MAP, la Météo Aéronautique d'un coup d'oeil ! - Copyright ORBIFLY Décembre 2007 - Disclaimer

ORBIFLY MET'MAP TEAM :

Programmation & Développement : Alexandra Zaïnal
Conception & Développement : Baudouin d'Aumeries
Co-Programmation & Développement : Marc-Olivier Méhu
Soutien technique & logistique : Manuel Goepfert

Contact : metmap@orbifly.com




SOURCES & CREDITS :

   NOAA